Date,TemperatureHighF,TemperatureAvgF,TemperatureLowF,DewpointHighF,DewpointAvgF,DewpointLowF,HumidityHigh,HumidityAvg,HumidityLow,PressureMaxIn,PressureMinIn,WindSpeedMaxMPH,WindSpeedAvgMPH,GustSpeedMaxMPH,PrecipitationSumIn
2014-1-1,51.1,49.6,48.2,45.1,41.9,37.9,85,75,65,30.19,30.09,8,4,15,0.53
2014-1-2,58.7,52.9,49.5,45.5,43.5,40.6,85,71,58,30.15,30.09,5,2,11,0.08
2014-1-3,60.9,53.6,47.7,46.1,42.8,40.3,78,67,50,30.21,30.14,4,1,8,0.00
2014-1-4,62.6,53.8,48.3,44.4,42.7,41.1,79,67,48,30.28,30.19,5,2,10,0.00
2014-1-5,61.0,53.9,46.5,51.9,46.4,41.3,82,76,62,30.25,30.11,5,2,11,0.00
2014-1-6,60.4,58.4,56.5,52.7,50.9,48.3,85,76,67,30.13,30.06,10,4,22,0.12
2014-1-7,62.7,57.7,54.8,50.3,47.7,45.8,76,70,55,30.23,30.12,10,5,19,0.02
2014-1-8,63.5,56.7,51.6,46.9,44.3,41.8,77,64,49,30.23,30.13,9,3,19,0.00
2014-1-9,68.4,58.1,51.1,48.0,42.9,40.3,77,58,37,30.16,30.09,5,2,10,0.00
2014-1-10,62.1,56.5,49.9,52.7,47.9,43.6,85,73,61,30.15,30.04,8,2,17,0.00
2014-1-11,62.1,56.7,51.0,51.2,48.4,46.0,83,74,61,30.21,30.09,5,1,10,0.00
2014-1-12,62.3,57.1,52.2,52.7,49.7,48.1,87,77,64,30.20,30.09,5,1,9,0.00
2014-1-13,60.1,56.2,52.9,50.5,46.5,42.6,83,71,54,30.15,30.09,6,1,11,0.00
2014-1-14,62.7,57.1,52.5,50.4,48.1,45.4,79,72,60,30.09,30.00,4,1,8,0.00
2014-1-15,61.6,58.7,54.4,55.0,52.1,48.0,85,79,72,30.04,29.95,10,5,19,0.14
2014-1-16,64.5,58.0,54.4,53.2,51.1,49.4,86,78,61,30.07,29.93,10,2,19,0.21
2014-1-17,65.6,56.8,50.8,52.1,49.9,47.2,88,78,57,30.17,30.06,6,1,9,0.01
2014-1-18,60.9,57.4,53.6,50.4,48.5,46.3,80,72,62,30.17,30.09,6,1,11,0.01
2014-1-19,65.0,59.7,54.2,57.4,52.2,47.8,84,76,64,30.14,30.01,10,4,20,0.00
2014-1-20,64.8,61.4,58.7,57.5,54.5,51.6,84,78,72,30.02,29.89,12,7,23,0.00
2014-1-21,67.3,61.7,56.9,55.6,48.9,39.1,85,64,36,29.89,29.81,14,7,25,0.00
2014-1-22,63.5,57.8,52.0,46.7,43.5,40.3,74,59,43,30.01,29.87,10,4,19,0.00
2014-1-23,64.3,58.4,53.5,45.8,43.2,36.2,72,58,36,30.09,30.01,12,5,23,0.00
2014-1-24,61.5,57.1,52.6,52.1,47.0,43.8,78,69,55,30.09,29.54,15,4,32,0.20
2014-1-25,63.2,58.2,53.2,53.6,46.8,42.2,90,67,49,29.60,29.50,20,6,42,1.75
2014-1-26,56.2,52.2,48.9,50.5,43.8,39.7,91,73,57,29.50,29.37,10,5,20,0.96
2014-1-27,54.7,48.9,44.8,42.0,37.3,35.3,78,65,51,29.63,29.46,8,4,15,0.02
2014-1-28,55.1,51.2,48.5,51.3,45.6,39.2,89,81,69,29.62,29.37,13,2,26,0.80
2014-1-29,61.0,54.9,49.1,49.9,42.1,38.8,90,63,46,30.03,29.40,13,5,25,0.20
2014-1-30,60.1,53.9,47.1,44.3,41.1,36.6,78,62,44,30.23,30.03,6,1,13,0.00
2014-1-31,58.3,47.2,49.6,45.1,23.3,-99.9,72,54,45,30.32,30.21,14,6,27,0.00
2014-2-1,-200.0,0.0,200.0,-99.9,-99.9,-99.9,0,0,100,30.31,30.07,0,0,0,0.00
2014-2-2,-200.0,0.0,200.0,-99.9,-99.9,-99.9,0,0,100,30.10,29.92,0,0,0,0.00
2014-2-3,51.1,12.7,50.2,37.7,-66.5,-99.9,62,15,55,30.09,29.96,15,3,28,0.00
2014-2-4,53.6,50.0,46.8,41.1,38.0,35.8,80,64,56,30.22,30.09,12,7,24,0.11
2014-2-5,54.1,51.2,49.1,41.3,39.0,37.1,68,63,57,30.21,30.11,6,2,14,0.00
2014-2-6,55.0,51.7,46.5,47.9,42.9,38.7,88,72,60,30.12,29.95,7,2,14,0.47
2014-2-7,61.8,55.5,50.8,49.1,47.4,45.8,85,75,59,30.14,29.94,12,4,19,0.57
2014-2-8,61.5,57.2,52.6,53.1,50.3,46.7,87,78,63,30.13,30.00,10,4,19,0.00
2014-2-9,63.2,58.8,56.2,55.9,52.5,45.8,88,80,65,30.00,29.89,8,3,15,0.04
2014-2-10,66.0,59.2,54.1,49.5,46.6,43.4,77,64,46,30.04,29.92,6,2,10,0.00
2014-2-11,63.9,58.3,52.6,54.5,51.2,46.9,87,77,70,30.06,30.00,10,3,18,0.00
2014-2-12,65.3,60.4,56.6,55.6,53.3,50.1,88,78,58,30.00,29.85,11,5,21,0.00
2014-2-13,61.8,56.9,53.5,50.1,45.4,41.3,77,66,52,29.90,29.85,6,2,13,0.00
2014-2-14,63.4,56.8,50.8,46.2,43.0,38.9,77,61,41,29.86,29.74,13,4,25,0.00
2014-2-15,64.2,56.6,52.0,43.3,40.8,37.9,64,56,41,30.12,29.80,9,4,16,0.00
2014-2-16,63.7,55.8,48.5,48.9,44.4,40.6,78,66,49,30.18,30.11,7,1,10,0.00
2014-2-17,64.8,57.5,51.1,54.6,48.2,43.3,87,72,48,30.20,30.14,7,2,14,0.00
2014-2-18,68.8,59.6,54.7,55.1,49.4,44.4,87,70,44,30.26,30.18,6,2,11,0.01
2014-2-19,60.7,55.4,51.0,54.6,51.5,48.2,94,87,78,30.27,30.15,8,1,14,0.02
2014-2-20,62.3,58.5,54.2,54.0,51.7,49.3,89,78,63,30.15,30.00,11,3,22,0.00
2014-2-21,62.7,59.2,56.6,53.7,51.6,49.7,84,76,64,30.01,29.83,6,2,11,0.00
2014-2-22,65.2,59.1,53.9,53.3,50.5,48.1,82,74,58,29.96,29.84,7,2,12,0.00
2014-2-23,68.3,59.5,54.5,52.3,49.2,45.4,86,70,44,29.97,29.89,9,3,17,0.38
2014-2-24,56.2,54.3,52.0,51.2,42.4,37.5,87,65,50,30.01,29.91,12,6,24,0.03
2014-2-25,58.7,52.7,50.1,40.3,39.4,38.0,66,61,47,30.17,30.01,7,4,15,0.00
2014-2-26,58.7,53.2,49.8,44.0,41.4,39.3,70,64,54,30.21,30.15,6,2,13,0.00
2014-2-27,60.1,54.7,48.8,48.9,45.4,42.1,79,71,59,30.23,30.14,9,2,16,0.00
2014-2-28,59.0,55.7,52.2,52.9,48.7,45.6,87,78,65,30.15,29.92,13,3,26,0.10
2014-3-1,56.5,55.2,53.6,54.2,51.9,48.4,92,89,78,29.93,29.63,13,2,25,0.92
2014-3-2,62.3,57.5,53.5,52.1,46.2,37.2,89,68,40,29.62,29.46,9,3,18,0.37
2014-3-3,58.1,55.5,52.8,52.7,49.9,46.6,89,82,67,29.60,29.29,15,6,33,0.78
2014-3-4,63.4,56.6,52.9,53.6,46.8,35.7,89,71,38,29.64,29.46,13,5,26,0.60
2014-3-5,61.2,56.3,50.4,50.8,44.7,40.4,84,66,48,29.77,29.63,10,3,18,0.00
2014-3-6,60.7,55.6,51.0,51.5,47.6,45.1,82,75,63,29.94,29.77,12,4,22,0.03
2014-3-7,61.6,55.9,52.6,50.2,46.9,43.7,86,72,55,30.00,29.93,7,3,16,0.12
2014-3-8,59.8,54.9,52.3,46.2,42.9,40.5,75,64,50,30.06,29.94,14,9,29,0.00
2014-3-9,52.5,50.1,48.5,43.7,38.8,33.2,80,65,54,30.08,30.02,19,12,41,0.03
2014-3-10,56.0,50.1,47.6,39.0,37.5,35.7,70,62,51,30.05,29.94,12,7,23,0.00
2014-3-11,55.4,49.9,46.1,37.9,36.2,33.9,70,60,48,30.18,29.97,12,6,24,0.00
2014-3-12,61.8,54.0,47.6,37.0,32.4,26.8,65,45,29,30.23,30.16,12,6,24,0.00
2014-3-13,62.1,55.4,50.1,39.0,33.4,27.6,64,45,29,30.32,30.23,12,6,23,0.00
2014-3-14,64.3,56.1,48.5,43.4,36.4,31.1,61,48,30,30.32,30.18,9,3,14,0.00
2014-3-15,62.3,55.8,48.0,48.2,42.0,34.3,76,60,35,30.18,29.90,10,3,18,0.00
2014-3-16,65.0,58.6,52.2,51.2,49.0,45.7,86,71,55,29.91,29.79,7,2,13,0.00
2014-3-17,72.8,62.4,52.5,50.4,44.2,35.7,81,55,28,30.06,29.86,10,3,20,0.00
2014-3-18,70.6,47.8,54.1,54.0,10.7,-99.9,70,41,34,30.11,30.03,8,2,14,0.00
2014-3-19,68.1,26.3,62.9,52.1,-41.7,-99.9,60,21,42,30.10,30.01,8,1,13,0.00
2014-3-20,68.1,63.0,58.3,47.2,39.6,31.2,65,43,29,30.30,30.03,16,6,32,0.00
2014-3-21,69.3,61.9,55.3,38.6,36.2,32.9,45,39,30,30.24,30.13,13,6,26,0.00
2014-3-22,66.4,60.0,53.2,47.8,41.2,35.3,65,50,37,30.15,30.00,9,2,17,0.00
2014-3-23,65.0,59.9,55.3,52.5,48.2,43.2,78,65,54,30.00,29.92,10,2,16,0.00
2014-3-24,63.2,59.9,56.6,56.5,52.0,47.2,82,75,67,29.94,29.75,11,3,18,0.00
2014-3-25,64.3,59.1,53.3,54.7,39.3,32.7,84,49,31,29.86,29.75,12,8,29,0.00
2014-3-26,64.7,59.7,55.4,54.3,47.7,40.5,81,65,51,29.99,29.83,15,5,27,0.00
2014-3-27,69.9,62.9,57.2,55.5,52.1,47.6,83,69,45,29.99,29.81,10,5,20,0.00
2014-3-28,68.8,61.9,57.3,55.2,46.2,38.7,82,58,34,29.87,29.80,11,4,18,0.00
2014-3-29,65.0,60.0,55.7,48.1,44.6,40.4,75,58,45,30.10,29.84,13,5,26,0.05
2014-3-30,62.0,56.9,52.2,43.6,38.1,30.5,64,50,39,30.16,30.01,14,8,27,0.00
2014-3-31,63.7,56.3,49.8,48.1,38.8,27.9,70,53,31,30.02,29.87,8,3,15,0.00
2014-4-1,63.7,58.0,51.0,52.6,48.6,44.4,79,71,63,29.89,29.83,9,2,16,0.00
2014-4-2,69.1,61.6,55.0,55.8,51.4,47.9,79,70,48,29.92,29.86,8,2,13,0.00
2014-4-3,70.1,61.9,55.7,56.4,49.3,38.7,85,65,33,30.01,29.90,10,3,17,0.00
2014-4-4,64.3,60.8,57.6,55.8,53.4,50.2,85,77,62,30.01,29.92,14,5,23,0.00
2014-4-5,70.4,65.0,60.5,54.7,50.0,45.2,81,59,44,29.93,29.77,14,7,28,0.00
2014-4-6,66.4,63.4,61.0,56.9,54.5,49.1,80,73,63,29.85,29.80,12,5,21,0.00
2014-4-7,65.3,59.9,56.3,55.3,51.6,47.1,86,74,55,30.01,29.81,10,4,18,0.53
2014-4-8,68.4,61.6,55.7,53.5,48.8,45.4,73,63,47,30.07,30.00,8,3,14,0.01
2014-4-9,68.3,62.2,55.4,56.9,52.2,49.3,81,70,56,30.03,29.89,11,3,19,0.00
2014-4-10,70.3,62.7,56.0,55.2,50.6,40.0,80,65,38,29.89,29.78,11,4,22,0.03
2014-4-11,62.7,57.5,53.9,50.3,40.9,28.9,83,55,30,30.01,29.89,12,5,27,0.41
2014-4-12,64.7,57.7,51.7,45.8,40.1,32.9,72,53,35,30.08,30.01,10,4,22,0.00
2014-4-13,64.2,59.7,55.7,53.8,49.5,44.1,75,69,61,30.06,29.94,7,2,14,0.00
2014-4-14,67.8,61.7,56.5,54.5,50.3,45.9,76,67,46,30.00,29.93,8,2,14,0.00
2014-4-15,66.3,61.0,53.5,54.4,50.8,46.4,80,70,57,29.95,29.83,11,3,21,0.00
2014-4-16,65.3,61.4,56.7,55.4,51.7,46.2,83,71,57,29.84,29.73,15,6,32,0.08
2014-4-17,61.3,56.9,50.2,51.8,45.3,40.3,83,66,50,29.79,29.66,10,3,19,0.20
2014-4-18,62.7,55.8,49.5,46.4,43.0,38.4,84,64,44,29.74,29.63,15,4,27,0.15
2014-4-19,67.1,59.1,51.7,50.2,43.2,39.0,69,56,41,29.93,29.74,10,4,20,0.00
2014-4-20,66.9,61.4,54.8,55.2,49.9,46.0,80,66,50,29.96,29.90,10,3,19,0.00
2014-4-21,67.9,63.0,60.4,58.4,54.2,46.9,88,74,47,29.99,29.86,9,4,18,0.05
2014-4-22,77.2,67.1,60.7,57.9,53.7,50.7,73,62,47,30.01,29.85,7,3,17,0.00
2014-4-23,75.4,68.3,62.3,58.1,55.0,42.7,82,64,31,29.99,29.78,10,1,19,0.00
2014-4-24,72.7,68.2,63.5,59.3,55.2,50.6,82,64,50,29.82,29.74,11,5,25,0.00
2014-4-25,76.5,68.0,62.4,56.5,53.4,48.9,75,61,39,29.80,29.73,15,6,26,0.00
2014-4-26,70.4,65.4,61.6,59.2,56.5,54.2,81,73,61,29.87,29.79,11,4,20,0.00
2014-4-27,68.9,63.8,60.4,58.3,53.6,48.7,85,70,50,29.83,29.71,10,4,18,0.03
2014-4-28,68.1,62.2,57.8,56.5,51.0,45.9,86,68,47,29.78,29.67,13,5,34,0.46
2014-4-29,69.6,64.2,59.9,54.2,49.4,44.3,71,59,43,29.82,29.74,14,7,25,0.00
2014-4-30,69.6,63.9,59.0,50.2,46.9,44.6,64,54,43,29.78,29.72,13,5,22,0.00
2014-5-1,68.6,64.3,59.3,54.6,50.0,46.3,68,60,48,29.82,29.76,10,4,20,0.00
2014-5-2,70.6,64.7,60.9,59.0,53.4,48.9,80,67,47,29.84,29.77,11,4,19,0.00
2014-5-3,67.9,64.2,61.2,60.2,56.7,52.1,85,77,63,29.84,29.70,12,5,20,0.00
2014-5-4,71.8,66.3,60.9,59.1,55.0,46.8,88,68,42,29.71,29.63,11,4,20,0.00
2014-5-5,72.3,65.7,61.5,54.3,50.9,45.9,67,59,39,29.92,29.70,10,4,19,0.00
2014-5-6,72.1,65.4,61.2,54.0,48.0,44.3,68,54,39,30.13,29.93,13,6,25,0.00
2014-5-7,73.7,65.7,58.7,48.0,43.4,34.8,66,46,30,30.13,30.01,12,6,24,0.00
2014-5-8,77.0,67.6,59.3,48.4,40.5,33.9,50,38,26,30.02,29.84,9,4,17,0.00
2014-5-9,75.6,68.4,61.6,46.0,41.2,33.9,54,38,26,29.90,29.80,15,6,27,0.00
2014-5-10,69.3,65.6,62.3,58.2,50.7,44.0,75,59,47,29.96,29.88,11,3,20,0.00
2014-5-11,73.3,67.7,61.6,60.4,55.4,50.0,80,65,53,29.98,29.92,12,3,22,0.00
2014-5-12,73.0,69.1,64.8,58.5,54.7,49.8,73,61,45,29.95,29.90,10,3,17,0.00
2014-5-13,75.8,70.6,66.6,61.1,55.3,51.5,81,59,44,29.99,29.92,9,3,15,0.00
2014-5-14,76.8,69.9,64.7,61.3,54.7,40.6,87,61,35,29.94,29.61,19,8,36,0.00
2014-5-15,73.3,66.5,61.8,48.2,44.6,40.1,58,46,31,29.84,29.71,17,11,33,0.00
2014-5-16,69.9,64.1,60.2,52.3,45.0,40.9,60,50,36,29.93,29.83,15,8,29,0.00
2014-5-17,68.3,63.6,58.7,53.9,48.1,42.1,67,57,40,30.06,29.93,12,6,22,0.00
2014-5-18,70.4,65.4,60.9,54.6,49.7,45.0,67,57,41,30.10,30.04,10,4,20,0.00
2014-5-19,68.6,64.0,61.2,57.6,52.0,44.7,77,65,44,30.10,30.05,7,2,13,0.00
2014-5-20,73.9,67.4,61.5,57.5,54.1,51.0,75,63,48,30.05,29.98,7,2,13,0.01
2014-5-21,81.1,73.6,66.0,54.7,43.6,35.7,65,36,20,30.02,29.98,13,6,26,0.00
2014-5-22,84.3,76.7,68.4,54.6,48.4,41.0,47,37,31,30.00,29.93,14,5,24,0.00
2014-5-23,84.5,75.6,71.3,59.7,51.4,43.5,63,44,25,29.96,29.90,10,4,20,0.00
2014-5-24,79.0,74.0,68.4,59.8,51.7,42.9,58,46,30,29.99,29.91,11,3,19,0.00
2014-5-25,79.8,74.1,69.1,63.0,56.4,50.6,69,55,40,30.01,29.94,8,2,16,0.00
2014-5-26,78.6,74.8,69.9,62.4,57.0,53.1,76,54,43,29.99,29.84,8,2,15,0.00
2014-5-27,79.8,75.9,70.6,63.0,57.8,52.1,72,54,39,29.90,29.82,12,3,19,0.00
2014-5-28,82.0,76.4,70.8,59.9,53.5,44.4,62,46,29,29.85,29.80,11,4,19,0.00
2014-5-29,76.7,73.1,69.4,62.2,58.0,50.7,74,60,41,29.82,29.70,18,6,33,0.00
2014-5-30,78.1,71.4,65.6,58.2,52.0,48.6,67,51,36,29.79,29.73,16,10,32,0.00
2014-5-31,80.3,71.9,67.4,59.0,53.4,47.4,64,53,32,29.84,29.76,14,6,28,0.00
2014-6-1,80.9,72.6,67.8,57.1,51.4,42.3,65,49,27,29.88,29.82,14,6,26,0.00
2014-6-2,77.9,71.2,66.0,57.6,49.2,41.0,63,47,27,29.93,29.85,13,6,25,0.00
2014-6-3,72.5,67.6,63.2,55.6,52.3,45.5,75,58,42,29.95,29.75,12,5,23,0.09
2014-6-4,73.7,67.7,62.7,59.6,55.6,51.9,82,66,52,29.81,29.67,14,7,26,0.03
2014-6-5,79.9,71.2,64.5,61.8,57.7,52.9,79,63,41,29.90,29.79,11,3,20,0.01
2014-6-6,85.3,74.2,67.4,61.3,55.1,46.4,70,53,26,29.93,29.88,11,4,24,0.00
2014-6-7,82.2,74.7,69.1,66.7,57.9,51.9,79,56,40,29.93,29.87,8,2,16,0.48
2014-6-8,84.5,77.1,68.4,60.5,56.7,51.2,73,51,33,29.94,29.86,12,5,23,0.00
2014-6-9,83.8,77.4,70.4,59.3,57.7,53.5,68,51,36,29.93,29.86,14,8,27,0.00
2014-6-10,84.5,79.3,74.6,58.3,56.8,54.4,55,46,36,29.95,29.89,14,9,28,0.00
2014-6-11,91.0,80.7,74.6,62.2,58.3,54.7,60,47,30,29.96,29.91,11,4,23,0.00
2014-6-12,88.4,80.8,76.3,62.4,55.2,49.1,61,42,27,30.00,29.92,10,4,21,0.00
2014-6-13,89.3,79.9,74.2,65.1,55.7,49.4,69,45,29,29.98,29.82,9,4,18,0.00
2014-6-14,83.4,78.3,73.3,66.3,61.3,54.5,66,56,41,29.85,29.74,10,3,18,0.00
2014-6-15,78.8,75.3,72.0,68.6,63.9,58.8,80,68,56,29.91,29.80,12,3,22,0.05
2014-6-16,80.3,75.5,70.1,66.2,61.1,57.8,69,61,48,29.97,29.90,11,3,18,0.00
2014-6-17,83.0,77.4,72.0,68.7,64.4,59.4,78,65,50,29.99,29.93,9,2,15,0.00
2014-6-18,83.6,78.2,73.2,69.5,64.9,59.5,83,64,46,29.96,29.85,10,3,20,0.00
2014-6-19,89.0,80.6,74.2,66.7,57.5,46.0,74,49,25,29.87,29.73,15,6,27,0.00
2014-6-20,83.0,76.7,71.8,63.7,56.4,52.6,71,50,38,29.82,29.72,16,8,29,0.03
2014-6-21,81.8,75.2,68.3,63.6,60.6,55.2,78,61,45,29.98,29.82,11,4,19,0.12
2014-6-22,80.7,75.5,72.1,63.7,60.8,58.8,70,61,49,30.08,29.98,7,2,12,0.00
2014-6-23,85.3,79.4,73.9,63.5,57.1,47.5,61,47,30,30.15,30.08,8,3,15,0.00
2014-6-24,87.4,79.8,75.3,67.3,55.7,46.0,62,44,31,30.11,29.96,11,4,19,0.00
2014-6-25,91.4,82.5,76.7,63.4,58.6,52.9,60,45,30,29.96,29.89,9,3,16,0.00
2014-6-26,95.9,85.4,77.2,66.5,57.9,43.4,68,42,17,29.92,29.85,10,2,22,0.00
2014-6-27,94.5,86.8,78.8,65.7,57.6,47.2,64,38,20,29.92,29.78,10,3,20,0.00
2014-6-28,91.4,83.3,77.6,65.0,57.5,51.8,60,42,31,30.02,29.82,15,9,30,0.00
2014-6-29,90.7,81.7,74.2,57.5,51.0,41.9,55,37,22,30.03,29.92,12,6,22,0.00
2014-6-30,86.5,79.2,74.9,66.5,54.5,45.6,68,44,30,29.96,29.85,11,5,22,0.00
2014-7-1,94.9,83.4,76.5,68.6,57.0,36.4,64,43,13,30.02,29.87,14,3,26,0.00
2014-7-2,92.5,84.4,77.0,64.7,55.6,50.8,64,38,28,30.08,30.02,11,5,25,0.00
2014-7-3,91.6,84.0,77.7,67.8,57.5,51.7,65,41,30,30.09,29.94,8,4,19,0.00
2014-7-4,85.3,80.3,75.6,65.5,52.1,42.2,63,39,23,29.99,29.94,17,9,31,0.00
2014-7-5,87.0,79.7,72.8,55.6,50.1,45.8,54,37,26,29.99,29.91,17,9,33,0.00
2014-7-6,91.0,81.9,76.0,64.7,53.2,46.4,65,38,23,29.93,29.86,7,3,14,0.00
2014-7-7,91.0,82.6,75.4,65.0,56.9,45.7,69,43,28,29.98,29.91,8,3,15,0.00
2014-7-8,90.7,82.7,78.3,69.3,59.3,50.1,66,46,34,29.98,29.85,10,3,20,0.00
2014-7-9,89.0,83.9,79.2,65.6,59.4,55.9,54,44,34,29.85,29.69,13,4,24,0.00
2014-7-10,89.7,82.1,76.8,69.4,58.7,47.8,69,46,25,29.75,29.67,11,4,18,0.00
2014-7-11,87.4,81.6,77.7,67.8,58.3,52.2,65,45,30,29.72,29.64,11,4,18,0.00
2014-7-12,88.0,79.4,74.2,64.9,55.3,47.2,63,44,26,29.88,29.72,14,8,27,0.00
2014-7-13,85.3,79.6,74.4,67.7,59.8,54.0,65,51,35,29.92,29.88,11,4,18,0.00
2014-7-14,88.6,80.8,75.1,66.3,60.2,52.3,64,50,30,29.90,29.80,10,4,18,0.00
2014-7-15,86.1,79.5,76.1,63.6,60.0,55.2,64,52,35,29.83,29.77,13,4,22,0.00
2014-7-16,84.7,77.6,73.7,64.3,58.9,55.3,63,53,37,29.92,29.79,7,4,14,0.00
2014-7-17,84.0,77.9,73.3,67.0,62.4,59.1,69,59,45,29.92,29.88,11,3,18,0.00
2014-7-18,85.9,79.7,73.9,68.2,62.1,55.0,67,56,36,29.90,29.82,9,2,16,0.00
2014-7-19,87.4,79.9,71.6,70.3,63.2,57.2,82,58,39,29.88,29.83,16,2,28,0.69
2014-7-20,90.5,82.7,74.6,66.5,59.1,53.5,70,47,30,29.90,29.85,12,5,23,0.00
2014-7-21,91.2,84.4,78.1,70.0,59.9,54.8,67,44,31,29.90,29.80,9,3,16,0.00
2014-7-22,87.0,82.6,78.6,70.6,64.8,53.8,75,56,33,29.84,29.68,12,4,21,0.00
2014-7-23,83.8,81.0,76.8,68.5,64.3,56.3,69,57,41,29.75,29.68,11,5,20,0.00
2014-7-24,85.7,80.7,77.2,70.4,64.6,59.6,75,59,45,29.83,29.71,12,4,19,0.00
2014-7-25,90.7,83.3,76.7,69.7,64.1,59.2,75,54,36,29.86,29.77,9,3,18,0.00
2014-7-26,94.0,85.5,79.4,70.3,62.6,58.8,64,47,31,29.88,29.81,10,3,21,0.00
2014-7-27,87.6,83.3,79.8,74.0,65.5,59.4,73,56,43,29.91,29.87,12,4,20,0.00
2014-7-28,88.6,82.9,78.1,72.1,66.7,61.4,75,59,45,29.91,29.78,11,2,17,0.00
2014-7-29,90.3,83.5,79.4,72.3,65.8,58.2,70,56,35,29.83,29.75,10,4,18,0.00
2014-7-30,88.8,83.6,79.4,73.7,68.0,63.2,72,60,45,29.85,29.79,12,4,20,0.00
2014-7-31,89.5,83.5,79.0,73.8,68.3,61.1,80,61,39,29.82,29.61,12,4,22,0.00
2014-8-1,91.4,83.4,78.5,69.7,61.8,53.7,63,49,29,29.68,29.63,12,6,19,0.00
2014-8-2,87.2,81.3,77.4,67.4,62.2,56.7,65,53,38,29.82,29.69,10,6,17,0.00
2014-8-3,90.1,83.1,78.5,71.8,64.7,58.8,70,54,39,29.86,29.80,11,4,18,0.00
2014-8-4,92.5,84.8,80.1,73.7,66.6,60.0,72,55,34,29.83,29.73,11,3,21,0.00
2014-8-5,95.6,88.0,80.5,67.7,59.2,48.6,58,40,24,29.77,29.68,8,3,18,0.00
2014-8-6,90.3,82.1,74.4,70.4,61.1,49.7,73,50,32,29.73,29.65,15,3,30,0.18
2014-8-7,86.1,77.8,72.1,64.5,59.9,56.5,70,55,38,29.82,29.68,9,4,16,0.00
2014-8-8,85.3,80.1,75.3,67.5,64.0,58.9,66,58,43,29.91,29.82,10,3,18,0.00
2014-8-9,92.1,82.8,76.5,69.8,63.7,58.1,67,53,35,29.96,29.90,10,3,18,0.00
2014-8-10,96.3,86.9,78.3,66.4,57.2,51.9,60,38,27,29.95,29.86,9,4,18,0.00
2014-8-11,97.1,88.4,80.7,63.2,56.0,52.2,43,34,25,29.91,29.86,10,4,22,0.00
2014-8-12,97.5,88.7,81.1,67.9,57.9,53.9,48,36,26,29.89,29.84,8,3,18,0.00
2014-8-13,99.0,90.6,82.8,59.9,53.1,47.3,40,29,19,29.88,29.80,12,6,23,0.00
2014-8-14,97.5,87.3,82.6,73.0,59.7,49.3,71,41,24,29.86,29.78,11,4,21,0.00
2014-8-15,93.2,85.8,80.5,74.3,64.1,52.7,68,49,30,29.85,29.78,13,3,25,0.00
2014-8-16,97.1,87.2,78.8,69.6,55.2,47.0,60,35,22,29.82,29.72,12,4,24,0.00
2014-8-17,94.9,86.3,79.8,61.8,57.9,49.4,54,39,22,29.78,29.68,15,5,27,0.00
2014-8-18,85.5,80.3,75.4,64.3,56.9,50.4,61,46,30,29.94,29.78,13,8,24,0.00
2014-8-19,91.0,81.5,73.9,58.5,53.4,49.3,56,39,25,30.01,29.93,12,5,20,0.00
2014-8-20,87.8,80.5,73.9,66.8,57.0,46.0,65,46,31,30.02,29.96,10,4,18,0.00
2014-8-21,87.8,82.0,76.0,71.2,64.9,60.5,68,57,41,30.00,29.95,8,2,14,0.00
2014-8-22,91.2,84.0,78.6,73.6,67.1,57.4,73,58,35,29.96,29.91,10,2,17,0.00
2014-8-23,90.3,84.0,79.8,74.7,65.2,53.1,79,55,33,29.94,29.88,9,2,15,0.00
2014-8-24,92.3,85.0,78.8,73.2,64.3,58.7,78,51,37,29.89,29.80,9,3,17,0.00
2014-8-25,94.5,86.5,80.5,68.7,61.9,56.3,56,44,34,29.92,29.81,7,3,17,0.00
2014-8-26,92.1,85.1,78.8,69.4,61.9,58.5,60,46,33,29.94,29.85,12,6,24,0.00
2014-8-27,89.0,82.7,79.0,70.4,65.2,59.9,69,56,41,29.90,29.79,11,3,19,0.00
2014-8-28,96.1,85.4,78.5,70.1,64.8,59.1,68,51,33,29.86,29.74,12,3,23,0.00
2014-8-29,89.7,83.4,78.5,64.3,59.9,54.9,56,45,36,29.99,29.86,16,11,28,0.00
2014-8-30,88.0,80.4,74.7,61.0,53.9,46.0,57,41,30,29.99,29.92,13,8,23,0.00
2014-8-31,91.2,81.1,74.2,62.6,56.2,46.7,55,43,28,29.96,29.83,7,3,16,0.00
2014-9-1,84.3,79.3,75.3,66.2,60.8,52.9,67,54,40,29.86,29.75,12,4,20,0.00
2014-9-2,82.0,79.0,75.8,71.6,67.1,63.4,78,67,58,29.76,29.63,14,5,25,0.06
2014-9-3,84.3,80.2,77.6,66.8,63.6,57.2,65,57,44,29.76,29.65,11,4,16,0.00
2014-9-4,84.5,79.5,75.6,66.3,62.4,57.4,66,56,41,29.82,29.75,8,3,14,0.00
2014-9-5,85.5,79.7,75.3,66.7,63.2,60.4,65,57,45,29.82,29.73,11,4,16,0.00
2014-9-6,83.4,78.9,74.6,67.5,65.1,61.9,70,63,53,29.79,29.71,11,3,19,0.02
2014-9-7,85.1,77.9,73.7,69.2,65.1,61.3,82,66,46,29.90,29.76,8,2,14,0.21
2014-9-8,84.5,77.9,72.1,66.4,62.2,58.7,69,59,44,29.98,29.89,7,3,16,0.02
2014-9-9,85.3,77.7,73.9,65.1,62.4,57.5,68,60,39,29.98,29.91,11,3,21,0.00
2014-9-10,85.3,78.3,71.8,63.6,58.4,47.6,70,52,34,29.95,29.88,10,3,17,0.00
2014-9-11,84.3,78.3,71.8,61.5,54.9,47.1,52,45,36,29.95,29.90,10,3,14,0.00
2014-9-12,85.7,79.2,74.4,70.0,63.6,57.7,73,59,39,29.99,29.91,9,3,15,0.00
2014-9-13,87.0,79.6,74.0,67.6,65.0,59.1,72,62,41,30.00,29.93,10,3,19,0.00
2014-9-14,83.2,78.9,74.6,66.7,62.3,56.9,65,57,46,29.95,29.88,12,3,21,0.00
2014-9-15,85.7,78.7,74.7,68.0,64.0,57.8,70,61,40,29.91,29.85,13,2,29,0.00
2014-9-16,82.8,77.7,73.2,66.9,62.4,57.2,71,60,44,29.89,29.84,12,3,24,0.00
2014-9-17,82.8,75.9,71.5,61.9,58.5,53.5,71,56,38,29.96,29.85,11,5,24,0.00
2014-9-18,79.9,74.5,70.3,59.2,55.7,50.3,63,52,43,30.11,29.96,9,5,17,0.00
2014-9-19,80.9,74.7,69.6,58.3,55.2,53.0,63,51,40,30.20,30.12,9,3,16,0.00
2014-9-20,80.7,74.8,69.8,61.2,55.0,45.7,64,51,34,30.17,30.04,9,4,16,0.00
2014-9-21,86.7,78.1,73.2,69.4,65.0,58.9,74,65,41,30.04,29.88,9,3,17,0.00
2014-9-22,84.7,80.4,75.4,71.6,66.8,60.2,75,64,44,29.92,29.78,8,3,24,0.00
2014-9-23,90.7,83.3,76.8,69.4,62.3,52.8,68,51,31,29.91,29.73,13,4,30,0.00
2014-9-24,79.4,73.3,69.4,57.7,51.6,47.6,63,47,38,30.07,29.92,13,6,25,0.00
2014-9-25,78.6,74.0,68.9,65.3,60.9,57.8,68,64,53,30.05,29.99,9,3,17,0.00
2014-9-26,81.1,73.4,66.8,66.3,60.6,51.0,81,65,50,29.98,29.78,14,4,24,0.27
2014-9-27,69.4,65.4,62.6,54.3,48.5,45.2,73,55,43,30.07,29.86,15,7,26,0.03
2014-9-28,72.1,66.1,60.7,54.1,48.5,43.7,79,54,38,30.27,30.07,11,5,23,0.02
2014-9-29,74.6,68.4,64.5,50.0,46.2,41.8,57,46,32,30.33,30.26,16,8,31,0.01
2014-9-30,80.9,70.9,63.1,51.9,48.0,40.3,62,46,29,30.30,30.16,10,4,17,0.00
2014-10-1,82.6,72.2,61.6,54.3,44.5,35.7,55,38,23,30.18,30.10,9,4,17,0.00
2014-10-2,82.0,72.7,66.3,57.2,49.4,38.7,64,45,30,30.14,30.08,12,6,21,0.00
2014-10-3,75.4,69.7,66.4,55.5,52.5,46.4,65,55,44,30.14,30.06,11,7,23,0.00
2014-10-4,71.5,66.9,63.9,51.4,49.0,46.6,61,53,44,30.10,30.04,12,8,22,0.00
2014-10-5,74.4,66.8,62.0,52.0,49.1,46.2,63,53,38,30.13,30.04,8,2,15,0.00
2014-10-6,74.0,69.7,63.9,61.9,56.5,51.6,69,63,57,30.16,30.08,10,3,19,0.00
2014-10-7,78.5,70.1,65.8,64.3,60.1,55.9,80,71,57,30.17,30.08,14,2,31,0.15
2014-10-8,78.3,69.1,64.0,60.7,58.2,55.8,82,69,47,30.14,30.05,10,3,19,0.10
2014-10-9,78.3,71.3,66.9,59.6,54.3,46.7,76,56,41,30.10,30.05,13,7,23,0.00
2014-10-10,79.0,70.0,64.2,54.6,49.2,44.5,65,49,33,30.10,30.04,10,4,19,0.00
2014-10-11,79.9,71.1,65.2,54.0,48.4,43.9,63,46,30,30.08,29.99,9,4,22,0.00
2014-10-12,77.4,69.7,62.0,55.4,49.5,43.8,62,49,33,30.06,29.99,8,2,13,0.00
2014-10-13,74.9,69.3,63.1,59.5,55.6,53.9,73,62,50,30.05,29.98,8,2,14,0.00
2014-10-14,76.5,69.9,64.2,60.6,57.4,53.2,73,65,55,30.01,29.94,7,2,13,0.00
2014-10-15,76.0,70.8,65.3,66.8,62.1,55.2,85,74,65,30.02,29.96,8,2,14,0.00
2014-10-16,80.9,74.5,68.1,66.2,62.8,53.6,85,69,42,30.04,29.99,9,1,18,0.00
2014-10-17,82.8,77.5,74.6,63.7,60.4,55.5,68,56,43,30.05,29.98,13,8,24,0.00
2014-10-18,86.1,77.3,71.8,63.3,56.7,40.2,73,51,26,30.14,29.96,15,5,25,0.00
2014-10-19,72.3,67.7,62.4,52.5,46.2,41.0,59,47,35,30.31,30.14,17,10,30,0.00
2014-10-20,75.4,66.2,59.3,51.6,47.0,42.9,60,50,37,30.29,30.06,7,3,19,0.00
2014-10-21,73.9,66.4,59.2,56.3,51.1,47.4,69,58,43,30.06,29.88,8,2,14,0.00
2014-10-22,74.0,69.1,62.7,63.2,56.9,51.3,79,66,47,29.87,29.67,15,5,28,0.00
2014-10-23,73.9,67.8,60.7,65.8,55.5,40.3,84,66,43,29.79,29.49,19,10,36,0.94
2014-10-24,66.9,62.5,58.4,58.7,51.2,43.8,84,67,53,29.81,29.55,18,7,39,0.81
2014-10-25,63.7,59.8,56.7,51.8,47.2,43.8,75,63,50,29.94,29.66,8,4,20,0.00
2014-10-26,63.2,58.8,56.5,50.2,47.3,45.3,75,66,56,30.14,29.94,11,4,19,0.00
2014-10-27,63.2,58.0,54.4,48.6,46.9,45.7,75,67,56,30.19,30.13,12,5,23,0.00
2014-10-28,62.4,58.6,57.3,49.2,47.2,44.6,72,66,58,30.17,30.08,12,7,22,0.00
2014-10-29,64.7,59.6,57.2,54.3,51.1,49.0,82,74,64,30.08,30.01,9,4,16,0.10
2014-10-30,69.9,62.1,55.6,50.9,48.8,45.4,81,63,43,30.06,30.01,7,3,13,0.00
2014-10-31,62.0,58.5,56.6,50.8,47.5,41.6,78,67,56,30.10,30.04,14,7,24,0.00
2014-11-1,61.2,57.5,55.4,43.5,41.2,37.9,63,55,45,30.17,30.08,14,10,31,0.00
2014-11-2,64.0,58.1,55.0,45.5,43.2,40.5,66,58,44,30.17,30.10,13,8,25,0.00
2014-11-3,66.1,58.7,54.1,46.0,42.5,40.3,64,55,42,30.20,30.14,10,6,19,0.00
2014-11-4,67.8,60.1,55.4,48.7,45.4,43.1,70,59,44,30.18,30.10,8,3,14,0.00
2014-11-5,67.8,61.9,55.7,56.8,52.8,47.9,78,72,63,30.21,30.11,8,3,16,0.00
2014-11-6,70.1,65.8,62.1,59.2,56.9,54.5,78,73,65,30.24,30.19,9,4,17,0.00
2014-11-7,71.5,66.0,60.7,59.4,56.8,55.0,83,73,60,30.21,29.98,9,2,21,0.15
2014-11-8,66.1,62.4,59.9,59.4,57.2,54.9,90,83,74,29.97,29.85,11,3,24,1.64
2014-11-9,70.9,63.0,57.5,58.6,55.8,53.6,88,78,60,30.07,29.86,7,1,11,0.00
2014-11-10,70.4,64.0,57.8,58.3,55.5,52.7,85,75,57,30.18,30.07,5,1,9,0.00
2014-11-11,70.8,63.2,58.0,55.9,54.6,53.1,85,74,57,30.19,30.09,4,1,9,0.00
2014-11-12,66.4,62.0,58.1,55.4,53.9,52.3,82,75,63,30.09,29.89,5,1,10,0.00
2014-11-13,72.5,65.0,60.2,60.9,58.5,55.4,90,80,62,29.88,29.75,7,2,13,0.20
2014-11-14,64.3,61.0,58.9,58.7,54.6,52.2,86,80,68,29.86,29.75,8,3,16,0.39
2014-11-15,63.9,60.8,57.6,54.6,52.8,49.7,84,75,68,30.01,29.86,7,3,14,0.00
2014-11-16,64.7,59.5,55.1,53.2,51.3,49.5,83,75,63,30.03,29.98,5,1,9,0.00
2014-11-17,74.9,66.1,59.5,62.7,58.3,52.9,86,76,57,30.01,29.92,8,2,17,0.00
2014-11-18,73.3,65.6,58.7,61.9,57.5,53.2,87,76,51,30.08,30.01,5,1,10,0.00
2014-11-19,70.8,67.8,65.6,63.8,61.3,53.0,85,80,63,30.07,29.95,13,6,24,0.00
2014-11-20,69.1,64.2,59.2,53.0,43.6,35.2,64,48,31,30.06,29.95,12,5,25,0.00
2014-11-21,64.2,58.6,55.6,43.1,38.7,33.6,60,48,33,30.12,30.04,10,5,22,0.00
2014-11-22,64.2,57.3,52.3,40.6,38.7,35.1,63,50,35,30.24,30.12,6,2,11,0.00
2014-11-23,55.3,54.2,53.3,46.3,42.2,38.3,75,64,55,30.27,30.21,12,6,22,0.00
2014-11-24,57.3,53.7,50.4,43.1,41.4,40.7,71,63,56,30.24,30.15,9,4,16,0.00
2014-11-25,56.7,51.8,48.8,41.8,38.7,35.9,69,61,48,30.21,30.15,14,8,30,0.00
2014-11-26,52.6,50.4,47.7,41.5,39.6,37.0,70,66,62,30.17,30.10,9,4,15,0.00
2014-11-27,55.4,52.8,51.0,48.5,42.3,38.4,88,68,61,30.17,30.10,6,1,11,0.19
2014-11-28,59.0,55.8,51.7,51.6,49.8,48.6,89,81,70,30.25,30.14,2,0,5,0.02
2014-11-29,66.9,62.2,58.0,60.4,56.2,51.2,89,81,75,30.24,30.12,6,1,11,0.00
2014-11-30,68.4,64.4,60.5,60.2,57.2,52.9,89,78,58,30.14,30.01,5,1,12,0.00
2014-12-1,67.8,61.8,56.7,57.4,55.3,52.5,87,79,68,30.06,29.97,4,1,7,0.00
2014-12-2,68.4,64.7,60.5,60.6,57.5,55.6,84,78,68,29.96,29.84,11,4,25,0.01
2014-12-3,72.1,67.8,62.4,60.6,57.2,53.9,89,69,61,29.98,29.86,14,6,31,0.25
2014-12-4,70.9,63.3,59.2,59.3,56.0,52.4,90,78,52,30.10,29.96,10,2,20,0.89
2014-12-5,66.0,61.2,57.3,56.7,54.7,53.1,86,80,66,30.12,30.04,3,0,7,0.00
2014-12-6,70.4,63.9,59.5,59.7,55.3,50.8,90,74,56,30.04,29.94,10,3,18,0.20
2014-12-7,66.8,61.0,56.2,54.3,52.0,49.7,83,73,59,29.98,29.84,9,1,18,0.01
2014-12-8,63.4,58.3,53.8,53.7,51.8,49.4,90,79,64,29.84,29.58,14,4,32,1.41
2014-12-9,63.2,56.6,53.5,51.6,48.2,45.2,89,74,55,29.77,29.58,8,3,14,0.91
2014-12-10,58.7,55.5,53.2,51.9,48.4,44.4,86,77,68,30.05,29.76,7,2,15,0.45
2014-12-11,60.7,55.9,54.1,55.2,52.0,50.1,91,87,80,30.06,29.81,11,4,21,2.26
2014-12-12,57.0,54.9,53.1,52.0,50.1,46.5,89,84,72,30.10,29.70,16,6,29,1.49
2014-12-13,64.3,56.0,50.1,46.4,44.6,42.9,78,66,48,30.24,30.11,8,3,19,0.00
2014-12-14,62.6,54.0,47.4,46.7,44.0,39.0,83,70,44,30.27,30.22,3,1,7,0.00
2014-12-15,59.3,54.3,49.6,47.8,45.8,44.0,81,73,61,30.29,30.24,4,1,6,0.00
2014-12-16,61.0,57.5,53.1,56.9,50.9,47.8,91,79,69,30.25,30.07,11,4,21,0.07
2014-12-17,63.2,59.9,55.0,56.8,53.9,50.9,88,81,69,30.07,29.94,17,7,35,0.69
2014-12-18,60.9,55.4,51.6,52.1,48.7,45.7,90,79,62,30.10,29.95,7,1,15,0.02
2014-12-19,63.9,55.3,49.2,48.1,45.9,43.9,86,72,50,30.20,30.10,3,1,6,0.01
2014-12-20,63.2,55.6,48.6,50.2,47.7,44.9,88,75,54,30.18,30.09,7,1,15,0.00
2014-12-21,67.1,56.5,50.1,49.9,43.2,29.1,86,64,36,30.25,30.03,15,4,30,0.01
2014-12-22,58.4,52.5,48.5,35.1,30.9,25.8,59,44,31,30.41,30.26,13,4,24,0.00
2014-12-23,65.2,53.9,44.5,42.6,38.6,34.7,78,58,38,30.31,30.22,6,1,12,0.00
2014-12-24,63.5,55.5,48.2,51.2,46.2,41.6,84,72,53,30.27,30.23,5,1,9,0.00
2014-12-25,66.3,56.9,49.1,51.9,49.2,45.4,89,76,57,30.22,30.04,7,1,16,0.01
2014-12-26,61.8,57.5,54.8,50.2,47.5,45.4,81,70,58,30.04,29.82,5,1,11,0.01
2014-12-27,58.6,53.5,46.8,49.3,40.4,31.2,83,62,41,29.92,29.77,7,2,15,0.00
2014-12-28,62.0,52.5,44.3,54.4,41.6,32.7,82,66,51,29.94,29.62,18,6,38,0.04
2014-12-29,62.9,58.5,53.5,51.0,43.7,38.0,79,58,48,29.87,29.55,18,7,37,0.04
2014-12-30,53.2,42.5,36.9,42.8,34.0,28.5,84,72,61,29.92,29.82,13,7,28,0.39
2014-12-31,42.8,40.8,36.0,35.8,34.0,30.7,84,77,71,29.90,29.79,21,15,45,0.13
2015-1-1,42.2,40.5,38.3,35.5,31.4,27.0,77,70,60,30.30,29.88,21,12,44,0.02
2015-1-2,45.5,40.8,38.5,28.7,25.6,18.5,65,55,43,30.35,30.28,10,6,19,0.00